Time;durP1;ratioP1;P1;durP2;ratioP2;P2;SDS_P1;SDS_P2;PMS_P1;PMS_P2;Temp;Humidity;BMP_temperature;BMP_pressure;BME280_temperature;BME280_humidity;BME280_pressure;Samples;Min_cycle;Max_cycle;Signal;HPM_P1;HPM_P2
2022/04/10 00:02:39;;;;;;;;;;;;;;;8.48;53.82;99317.41;4385836;32;34710;-86
2022/04/10 00:05:30;;;;;;;;;;;;;;;8.57;53.85;99313.88;4384744;32;32867;-85
2022/04/10 00:08:13;;;;;;;;;;;;;;;8.70;54.10;99309.13;4387882;32;33684;-85
2022/04/10 00:10:57;;;;;;;;;;;;;;;8.91;53.82;99307.91;4399725;32;36117;-85
2022/04/10 00:13:28;;;;;;;;;;;;;;;8.94;53.49;99312.09;4384802;32;34423;-85
2022/04/10 00:16:16;;;;;;;;;;;;;;;8.69;53.37;99308.28;4377601;32;33562;-87
2022/04/10 00:18:48;;;;;;;;;;;;;;;8.82;53.67;99300.00;4373404;32;34381;-85
2022/04/10 00:21:18;;;;;;;;;;;;;;;8.65;53.20;99298.94;4373690;32;34708;-85
2022/04/10 00:24:05;;;;;;;;;;;;;;;8.82;53.33;99290.22;4398693;32;35119;-84
2022/04/10 00:26:37;;;;;;;;;;;;;;;8.29;53.57;99290.94;4373927;32;34449;-85
2022/04/10 00:29:13;;;;;;;;;;;;;;;8.44;53.22;99286.88;4386494;32;33994;-85
2022/04/10 00:31:46;;;;;;;;;;;;;;;8.17;53.94;99304.44;4383758;32;34064;-86
2022/04/10 00:34:33;;;;;;;;;;;;;;;8.00;54.67;99303.34;4387425;32;35760;-84
2022/04/10 00:37:17;;;;;;;;;;;;;;;8.11;54.56;99300.53;4396924;32;32881;-86
2022/04/10 00:39:46;;;;;;;;;;;;;;;8.39;53.66;99309.47;4384796;32;33405;-84
2022/04/10 00:42:31;;;;;;;;;;;;;;;7.93;54.86;99310.16;4374908;32;35251;-84
2022/04/10 00:45:20;;;;;;;;;;;;;;;8.06;55.61;99313.38;4386280;32;35471;-85
2022/04/10 00:48:09;;;;;;;;;;;;;;;8.05;55.20;99311.72;4398300;32;32846;-85
2022/04/10 00:51:40;;;;;;;;;;;;;;;8.24;55.16;99314.37;4383233;32;34402;-85
2022/04/10 00:53:34;;;;;;;;;;;;;;;8.14;55.29;99318.81;4387609;32;35400;-86
2022/04/10 00:56:21;;;;;;;;;;;;;;;8.04;55.61;99320.66;4372699;32;34290;-85
2022/04/10 00:58:53;;;;;;;;;;;;;;;7.89;56.03;99337.91;4360945;32;32581;-84
2022/04/10 01:01:21;;;;;;;;;;;;;;;7.64;56.83;99337.63;4371296;32;34686;-86
2022/04/10 01:04:11;;;;;;;;;;;;;;;7.75;56.90;99340.94;4374328;32;33813;-85
2022/04/10 01:07:19;;;;;;;;;;;;;;;7.90;56.47;99344.87;4396376;32;34307;-84
2022/04/10 01:10:07;;;;;;;;;;;;;;;7.93;56.33;99343.78;4386904;32;33252;-85
2022/04/10 01:12:54;;;;;;;;;;;;;;;7.69;56.73;99345.97;4396931;32;32823;-85
2022/04/10 01:15:43;;;;;;;;;;;;;;;7.77;56.59;99348.78;4386377;32;34155;-84
2022/04/10 01:18:20;;;;;;;;;;;;;;;7.77;56.47;99348.78;4374695;32;34677;-85
2022/04/10 01:21:05;;;;;;;;;;;;;;;7.90;56.19;99354.63;4372961;32;33625;-86
2022/04/10 01:23:54;;;;;;;;;;;;;;;7.86;56.33;99350.59;4386705;32;34034;-85
2022/04/10 01:26:38;;;;;;;;;;;;;;;7.92;55.85;99358.00;4372678;32;34333;-85
2022/04/10 01:29:10;;;;;;;;;;;;;;;7.66;56.48;99362.94;4399091;32;33717;-84
2022/04/10 01:31:57;;;;;;;;;;;;;;;7.89;56.25;99363.53;4383045;32;32782;-85
2022/04/10 01:34:45;;;;;;;;;;;;;;;7.60;56.82;99368.81;4377218;32;32791;-84
2022/04/10 01:37:33;;;;;;;;;;;;;;;7.43;57.41;99377.41;4373927;32;34128;-86
2022/04/10 01:40:24;;;;;;;;;;;;;;;7.31;57.67;99369.69;4377059;32;34205;-85
2022/04/10 01:42:53;;;;;;;;;;;;;;;7.17;58.20;99370.06;4384493;32;33531;-83
2022/04/10 01:45:43;;;;;;;;;;;;;;;7.34;57.66;99383.50;4376073;32;33521;-85
2022/04/10 01:48:29;;;;;;;;;;;;;;;7.26;57.64;99372.75;4386833;32;35236;-85
2022/04/10 01:51:16;;;;;;;;;;;;;;;7.23;57.78;99380.09;4371973;32;33859;-85
2022/04/10 01:54:05;;;;;;;;;;;;;;;6.99;57.99;99383.06;4377127;32;33215;-84
2022/04/10 01:56:39;;;;;;;;;;;;;;;6.79;58.92;99378.66;4371575;32;33037;-85
2022/04/10 01:59:24;;;;;;;;;;;;;;;6.76;58.97;99368.34;4376189;32;36161;-84
2022/04/10 02:02:11;;;;;;;;;;;;;;;6.78;59.14;99370.84;4376812;32;34275;-85
2022/04/10 02:04:48;;;;;;;;;;;;;;;7.14;58.23;99370.31;4384840;32;33970;-86
2022/04/10 02:07:19;;;;;;;;;;;;;;;7.05;58.29;99374.59;4399203;32;34364;-85
2022/04/10 02:10:07;;;;;;;;;;;;;;;7.30;57.48;99375.97;4395781;32;35730;-84
2022/04/10 02:12:56;;;;;;;;;;;;;;;6.86;58.63;99366.59;4387343;32;34424;-84
2022/04/10 02:15:26;;;;;;;;;;;;;;;6.93;58.34;99373.03;4384179;32;32802;-85
2022/04/10 02:18:14;;;;;;;;;;;;;;;6.79;58.92;99381.28;4363332;32;33566;-87
2022/04/10 02:21:04;;;;;;;;;;;;;;;6.56;60.25;99379.78;4385467;32;34460;-85
2022/04/10 02:23:57;;;;;;;;;;;;;;;6.57;59.53;99383.22;4377775;32;33055;-85
2022/04/10 02:26:45;;;;;;;;;;;;;;;6.89;59.34;99398.03;4388146;32;32879;-86
2022/04/10 02:29:14;;;;;;;;;;;;;;;7.01;58.59;99401.44;4384602;32;33971;-85
2022/04/10 02:32:02;;;;;;;;;;;;;;;7.40;57.22;99401.50;4374137;32;33774;-84
2022/04/10 02:34:51;;;;;;;;;;;;;;;7.21;57.64;99413.78;4373374;32;34830;-85
2022/04/10 02:37:21;;;;;;;;;;;;;;;7.07;58.18;99404.41;4372799;32;32088;-86
2022/04/10 02:40:09;;;;;;;;;;;;;;;6.05;60.56;99401.75;4385967;32;34810;-86
2022/04/10 02:42:54;;;;;;;;;;;;;;;6.88;59.02;99399.00;4385983;32;35453;-85
2022/04/10 02:45:42;;;;;;;;;;;;;;;6.84;59.11;99404.69;4397952;32;35377;-86
2022/04/10 02:48:29;;;;;;;;;;;;;;;7.05;57.94;99413.44;4396960;32;33366;-85
2022/04/10 02:50:58;;;;;;;;;;;;;;;6.99;58.17;99412.16;4372181;32;33940;-85
2022/04/10 02:53:46;;;;;;;;;;;;;;;7.28;56.61;99418.41;4385169;32;34881;-85
2022/04/10 02:56:49;;;;;;;;;;;;;;;7.04;57.32;99417.03;4387909;32;35816;-85
2022/04/10 02:59:56;;;;;;;;;;;;;;;7.14;57.14;99417.94;4379071;32;34350;-86
2022/04/10 03:03:01;;;;;;;;;;;;;;;7.28;57.11;99428.19;4398106;32;34203;-85
2022/04/10 03:06:27;;;;;;;;;;;;;;;7.27;57.25;99434.44;4389675;32;36701;-85
2022/04/10 03:09:29;;;;;;;;;;;;;;;7.28;56.81;99441.41;4387839;32;35882;-86
2022/04/10 03:12:34;;;;;;;;;;;;;;;7.03;57.54;99437.37;4387241;32;33949;-86
2022/04/10 03:15:36;;;;;;;;;;;;;;;7.10;57.22;99446.44;4387742;32;35355;-85
2022/04/10 03:18:26;;;;;;;;;;;;;;;7.17;57.52;99450.25;4396829;32;36052;-85
2022/04/10 03:21:31;;;;;;;;;;;;;;;6.86;58.29;99451.19;4385996;32;35494;-85
2022/04/10 03:24:19;;;;;;;;;;;;;;;6.87;58.50;99454.66;4385140;32;33822;-86
2022/04/10 03:27:24;;;;;;;;;;;;;;;6.64;58.97;99455.75;4380111;32;34542;-86
2022/04/10 03:30:31;;;;;;;;;;;;;;;6.73;59.11;99458.47;4399446;32;35720;-86
2022/04/10 03:33:22;;;;;;;;;;;;;;;6.53;59.30;99467.22;4400751;32;35949;-85
2022/04/10 03:36:10;;;;;;;;;;;;;;;6.46;59.96;99458.13;4399711;32;34422;-86
2022/04/10 03:38:58;;;;;;;;;;;;;;;6.25;60.56;99466.97;4400208;32;35458;-84
2022/04/10 03:42:01;;;;;;;;;;;;;;;6.17;60.60;99467.59;4390567;32;35701;-85
2022/04/10 03:45:04;;;;;;;;;;;;;;;5.61;63.16;99481.81;4383066;32;35845;-86
2022/04/10 03:48:08;;;;;;;;;;;;;;;5.28;64.33;99494.16;4382236;32;34783;-85
2022/04/10 03:51:11;;;;;;;;;;;;;;;5.69;63.17;99482.06;4379856;32;34830;-85
2022/04/10 03:54:04;;;;;;;;;;;;;;;5.99;62.47;99484.94;4389173;32;36696;-85
2022/04/10 03:56:58;;;;;;;;;;;;;;;6.12;61.62;99488.25;4389516;32;34792;-86
2022/04/10 03:59:46;;;;;;;;;;;;;;;6.13;61.57;99489.94;4388874;32;35060;-87
2022/04/10 04:02:59;;;;;;;;;;;;;;;6.42;60.73;99490.22;4392279;32;34892;-86
2022/04/10 04:05:55;;;;;;;;;;;;;;;6.15;61.44;99500.38;4389783;32;35839;-85
2022/04/10 04:08:43;;;;;;;;;;;;;;;6.38;61.16;99494.06;4389832;32;35906;-86
2022/04/10 04:11:39;;;;;;;;;;;;;;;6.37;60.54;99498.53;4390926;32;34326;-85
2022/04/10 04:14:43;;;;;;;;;;;;;;;6.34;60.75;99504.03;4401654;32;34781;-86
2022/04/10 04:17:39;;;;;;;;;;;;;;;6.43;60.24;99503.28;4402386;32;37003;-86
2022/04/10 04:20:27;;;;;;;;;;;;;;;6.06;61.25;99506.41;4388877;32;35413;-86
2022/04/10 04:23:22;;;;;;;;;;;;;;;6.40;60.76;99513.25;4380124;32;33675;-86
2022/04/10 04:26:28;;;;;;;;;;;;;;;6.41;60.17;99510.50;4398897;32;34530;-84
2022/04/10 04:29:16;;;;;;;;;;;;;;;6.04;61.33;99522.38;4387793;32;37060;-87
2022/04/10 04:32:18;;;;;;;;;;;;;;;6.07;62.03;99513.37;4399286;32;35052;-85
2022/04/10 04:35:15;;;;;;;;;;;;;;;6.04;61.83;99514.44;4390308;32;34056;-86
2022/04/10 04:38:42;;;;;;;;;;;;;;;6.09;61.70;99516.72;4393042;32;34715;-86
2022/04/10 04:41:32;;;;;;;;;;;;;;;6.08;61.61;99522.97;4388740;32;36001;-85
2022/04/10 04:44:38;;;;;;;;;;;;;;;6.23;61.29;99527.84;4382319;32;35959;-85
2022/04/10 04:47:46;;;;;;;;;;;;;;;6.49;60.20;99534.50;4400879;32;35312;-85
2022/04/10 04:50:50;;;;;;;;;;;;;;;6.36;60.71;99525.06;4388895;32;35454;-86
2022/04/10 04:53:57;;;;;;;;;;;;;;;6.33;61.43;99541.16;4389968;32;36048;-85
2022/04/10 04:56:51;;;;;;;;;;;;;;;6.13;61.71;99528.69;4398871;32;35608;-86
2022/04/10 04:59:47;;;;;;;;;;;;;;;6.35;61.24;99549.81;4388386;32;33958;-86
2022/04/10 05:02:49;;;;;;;;;;;;;;;6.16;61.80;99550.44;4379313;32;34736;-85
2022/04/10 05:05:56;;;;;;;;;;;;;;;6.04;61.87;99559.34;4389335;32;35966;-86
2022/04/10 05:09:00;;;;;;;;;;;;;;;6.28;61.50;99562.66;4398163;32;36105;-84
2022/04/10 05:12:03;;;;;;;;;;;;;;;6.51;60.91;99566.09;4389316;32;34204;-86
2022/04/10 05:15:10;;;;;;;;;;;;;;;6.52;61.07;99575.72;4397900;32;35339;-86
2022/04/10 05:18:19;;;;;;;;;;;;;;;6.49;61.28;99582.06;4399197;32;35440;-85
2022/04/10 05:21:22;;;;;;;;;;;;;;;6.11;62.37;99583.44;4388301;32;35486;-86
2022/04/10 05:24:29;;;;;;;;;;;;;;;6.52;60.82;99583.63;4389756;32;34849;-85
2022/04/10 05:27:37;;;;;;;;;;;;;;;6.97;59.74;99591.28;4388002;32;35731;-86
2022/04/10 05:31:04;;;;;;;;;;;;;;;6.77;60.17;99593.88;4392121;32;36075;-86
2022/04/10 05:33:55;;;;;;;;;;;;;;;6.91;59.62;99601.53;4387094;32;35037;-86
2022/04/10 05:37:01;;;;;;;;;;;;;;;6.85;59.93;99596.72;4390351;32;33709;-86
2022/04/10 05:40:00;;;;;;;;;;;;;;;6.82;59.97;99603.09;4387406;32;34506;-86
2022/04/10 05:43:03;;;;;;;;;;;;;;;6.81;59.64;99606.72;4389363;32;35720;-85
2022/04/10 05:46:06;;;;;;;;;;;;;;;6.78;59.60;99612.25;4397666;32;35477;-86
2022/04/10 05:49:10;;;;;;;;;;;;;;;6.90;60.25;99613.06;4399665;32;34992;-86
2022/04/10 05:51:58;;;;;;;;;;;;;;;7.38;58.75;99614.28;4385519;32;35662;-86
2022/04/10 05:54:56;;;;;;;;;;;;;;;7.58;58.15;99610.81;4387894;32;36354;-86
2022/04/10 05:58:23;;;;;;;;;;;;;;;7.82;57.96;99616.66;4390583;32;35979;-85
2022/04/10 06:01:25;;;;;;;;;;;;;;;8.00;57.27;99617.72;4380259;32;34342;-86
2022/04/10 06:04:36;;;;;;;;;;;;;;;8.34;56.44;99617.34;4398795;32;34846;-85
2022/04/10 06:07:35;;;;;;;;;;;;;;;8.36;55.59;99622.50;4389357;32;36558;-85
2022/04/10 06:10:38;;;;;;;;;;;;;;;8.31;56.48;99620.25;4381053;32;35536;-85
2022/04/10 06:13:32;;;;;;;;;;;;;;;8.61;55.64;99621.03;4400627;32;35199;-86
2022/04/10 06:16:02;;;;;;;;;;;;;;;8.57;56.18;99624.94;4374452;32;33659;-86
2022/04/10 06:18:40;;;;;;;;;;;;;;;8.59;55.30;99622.13;4375374;32;34729;-86
2022/04/10 06:21:24;;;;;;;;;;;;;;;8.47;57.13;99628.53;4375687;32;33959;-86
2022/04/10 06:24:01;;;;;;;;;;;;;;;8.82;56.18;99618.28;4374726;32;32051;-83
2022/04/10 06:26:48;;;;;;;;;;;;;;;8.91;55.44;99626.25;4389846;32;34714;-84
2022/04/10 06:29:38;;;;;;;;;;;;;;;8.89;54.42;99622.06;4401726;32;34541;-85
2022/04/10 06:32:18;;;;;;;;;;;;;;;8.75;55.08;99620.66;4388866;32;34343;-84
2022/04/10 06:35:02;;;;;;;;;;;;;;;8.64;54.81;99631.38;4387511;32;33833;-85
2022/04/10 06:37:31;;;;;;;;;;;;;;;8.20;56.68;99633.59;4385932;32;34530;-84
2022/04/10 06:40:02;;;;;;;;;;;;;;;8.61;55.66;99644.91;4374003;32;35730;-86
2022/04/10 06:42:40;;;;;;;;;;;;;;;8.80;55.59;99641.47;4399516;32;34761;-85
2022/04/10 06:45:11;;;;;;;;;;;;;;;8.98;55.21;99647.78;4385608;32;34821;-85
2022/04/10 06:47:51;;;;;;;;;;;;;;;8.78;54.74;99648.69;4398188;32;34511;-84
2022/04/10 06:50:38;;;;;;;;;;;;;;;8.27;55.20;99644.50;4397478;32;36054;-85
2022/04/10 06:53:15;;;;;;;;;;;;;;;8.68;54.63;99654.00;4372493;32;34394;-88
2022/04/10 06:56:06;;;;;;;;;;;;;;;8.30;55.44;99647.72;4398879;32;32590;-85
2022/04/10 06:58:38;;;;;;;;;;;;;;;8.68;55.18;99655.78;4385135;32;32565;-85
2022/04/10 07:01:13;;;;;;;;;;;;;;;9.18;55.61;99657.44;4383971;32;35561;-87
2022/04/10 07:03:58;;;;;;;;;;;;;;;9.16;55.32;99670.00;4387247;32;35848;-86
2022/04/10 07:06:37;;;;;;;;;;;;;;;9.49;52.47;99662.47;4387277;32;33245;-84
2022/04/10 07:09:13;;;;;;;;;;;;;;;9.47;52.82;99669.72;4374455;32;33800;-85
2022/04/10 07:11:58;;;;;;;;;;;;;;;9.48;52.42;99668.75;4386806;32;34456;-85
2022/04/10 07:14:35;;;;;;;;;;;;;;;9.92;53.15;99668.13;4387285;32;34562;-85
2022/04/10 07:17:21;;;;;;;;;;;;;;;10.19;52.38;99678.84;4389291;32;32620;-84
2022/04/10 07:19:51;;;;;;;;;;;;;;;10.54;51.10;99676.34;4361235;32;34070;-84
2022/04/10 07:25:41;;;;;;;;;;;;;;;10.35;50.11;99678.25;4389461;32;35308;-85
2022/04/10 07:28:31;;;;;;;;;;;;;;;10.17;50.25;99686.16;4388877;32;33668;-84
2022/04/10 07:39:17;;;;;;;;;;;;;;;;;;;;;
2022/04/10 07:42:21;;;;;;;;;;;;;;;10.41;50.52;99694.47;4321127;33;33201;-87
2022/04/10 07:49:03;;;;;;;;;;;;;;;10.64;52.29;99698.44;4305169;28;35648;-91
2022/04/10 07:51:36;;;;;;;;;;;;;;;11.13;49.69;99695.34;4283957;33;32824;-87
2022/04/10 07:54:21;;;;;;;;;;;;;;;10.88;51.02;99709.38;4278126;33;33184;-89
2022/04/10 07:57:12;;;;;;;;;;;;;;;11.00;49.30;99702.88;4285925;33;33719;-88
2022/04/10 07:59:56;;;;;;;;;;;;;;;10.85;50.31;99708.84;4268405;33;35026;-89
2022/04/10 08:02:26;;;;;;;;;;;;;;;11.12;48.75;99709.66;4270961;33;34110;-89
2022/04/10 08:04:59;;;;;;;;;;;;;;;11.38;48.15;99713.25;4274783;33;32768;-87
2022/04/10 08:07:46;;;;;;;;;;;;;;;11.48;48.58;99708.69;4323527;32;33138;-87
2022/04/10 08:10:30;;;;;;;;;;;;;;;11.61;48.27;99711.84;4352360;32;34927;-86
2022/04/10 08:13:33;;;;;;;;;;;;;;;11.34;49.13;99714.56;4366158;32;34795;-89
2022/04/10 08:16:17;;;;;;;;;;;;;;;11.23;49.07;99728.06;4369305;32;33623;-87
2022/04/10 08:18:58;;;;;;;;;;;;;;;11.50;48.33;99723.53;4368950;32;33386;-86
2022/04/10 08:21:28;;;;;;;;;;;;;;;11.53;49.56;99704.59;4366655;32;35003;-90
2022/04/10 08:23:57;;;;;;;;;;;;;;;11.60;48.40;99711.00;4355602;32;34766;-89
2022/04/10 08:26:25;;;;;;;;;;;;;;;11.69;45.59;99715.44;4352007;32;33826;-89
2022/04/10 08:28:53;;;;;;;;;;;;;;;11.72;46.79;99717.78;4354604;32;34929;-89
2022/04/10 08:31:55;;;;;;;;;;;;;;;11.83;45.04;99714.06;4370391;32;33904;-88
2022/04/10 08:34:27;;;;;;;;;;;;;;;11.69;46.62;99725.25;4368119;32;35124;-88
2022/04/10 08:37:10;;;;;;;;;;;;;;;11.78;46.49;99725.16;4366845;32;33932;-91
2022/04/10 08:39:42;;;;;;;;;;;;;;;11.74;45.90;99720.31;4364911;32;33898;-87
2022/04/10 08:42:13;;;;;;;;;;;;;;;11.49;45.37;99713.03;4365819;32;35308;-88
2022/04/10 08:44:40;;;;;;;;;;;;;;;11.96;46.02;99722.47;4353739;32;33463;-88
2022/04/10 08:47:32;;;;;;;;;;;;;;;11.81;45.35;99719.53;4367649;32;33488;-89
2022/04/10 08:50:04;;;;;;;;;;;;;;;11.80;44.02;99725.84;4363726;32;34096;-87
2022/04/10 08:52:53;;;;;;;;;;;;;;;12.18;42.79;99725.47;4362151;32;35380;-92
2022/04/10 08:55:20;;;;;;;;;;;;;;;12.25;43.59;99734.53;4364500;32;33820;-88
2022/04/10 08:57:56;;;;;;;;;;;;;;;12.33;44.63;99720.41;4362206;32;33544;-86
2022/04/10 09:00:44;;;;;;;;;;;;;;;12.31;45.33;99733.94;4352046;32;32937;-86
2022/04/10 09:03:13;;;;;;;;;;;;;;;12.25;42.57;99737.22;4351270;32;34419;-87
2022/04/10 09:05:42;;;;;;;;;;;;;;;12.09;43.55;99738.94;4364309;32;35382;-90
2022/04/10 09:08:32;;;;;;;;;;;;;;;12.06;42.69;99734.72;4353463;32;34281;-88
2022/04/10 09:11:05;;;;;;;;;;;;;;;12.37;43.98;99737.78;4351583;32;33555;-87
2022/04/10 09:13:53;;;;;;;;;;;;;;;12.30;44.30;99729.56;4353647;32;34647;-88
2022/04/10 09:16:42;;;;;;;;;;;;;;;12.24;43.33;99716.88;4361399;32;34115;-87
2022/04/10 09:19:10;;;;;;;;;;;;;;;12.07;44.29;99723.06;4364362;32;33588;-87
2022/04/10 09:21:43;;;;;;;;;;;;;;;12.25;43.65;99728.34;4350653;32;33919;-90
2022/04/10 09:24:12;;;;;;;;;;;;;;;12.57;42.68;99725.91;4364002;32;35873;-84
2022/04/10 09:26:59;;;;;;;;;;;;;;;12.45;42.05;99727.16;4340996;32;33177;-88
2022/04/10 09:29:30;;;;;;;;;;;;;;;12.53;42.75;99732.53;4362687;32;33881;-90
2022/04/10 09:32:13;;;;;;;;;;;;;;;12.28;44.02;99733.41;4352181;32;33616;-87
2022/04/10 09:35:01;;;;;;;;;;;;;;;12.54;42.65;99729.72;4351418;32;35007;-86
2022/04/10 09:37:44;;;;;;;;;;;;;;;12.73;43.67;99729.47;4351399;32;33956;-90
2022/04/10 09:40:39;;;;;;;;;;;;;;;12.67;41.53;99739.97;4352708;32;33132;-87
2022/04/10 09:43:12;;;;;;;;;;;;;;;12.43;42.03;99738.00;4353139;32;33958;-87
2022/04/10 09:45:46;;;;;;;;;;;;;;;12.45;41.19;99740.50;4351867;32;36102;-89
2022/04/10 09:48:34;;;;;;;;;;;;;;;12.91;41.75;99740.91;4363119;32;33625;-88
2022/04/10 09:51:21;;;;;;;;;;;;;;;13.14;40.15;99728.69;4355826;32;34228;-87
2022/04/10 09:54:01;;;;;;;;;;;;;;;12.88;40.10;99743.91;4340680;32;33076;-86
2022/04/10 09:56:31;;;;;;;;;;;;;;;12.82;42.42;99743.69;4355426;32;35689;-83
2022/04/10 09:59:03;;;;;;;;;;;;;;;12.91;41.46;99742.75;4345722;32;33084;-87
2022/04/10 10:01:34;;;;;;;;;;;;;;;12.64;41.81;99729.59;4345468;32;33452;-87
2022/04/10 10:04:26;;;;;;;;;;;;;;;12.60;40.21;99731.78;4349554;32;34979;-92
2022/04/10 10:07:15;;;;;;;;;;;;;;;12.99;41.31;99737.47;4358399;32;35449;-88
2022/04/10 10:09:58;;;;;;;;;;;;;;;12.96;39.85;99732.47;4358607;32;34531;-87
2022/04/10 10:12:46;;;;;;;;;;;;;;;13.13;42.24;99731.53;4355384;32;34363;-86
2022/04/10 10:15:34;;;;;;;;;;;;;;;13.53;40.08;99735.16;4358321;32;33843;-89
2022/04/10 10:18:03;;;;;;;;;;;;;;;13.04;39.74;99735.16;4344424;32;35471;-87
2022/04/10 10:20:51;;;;;;;;;;;;;;;13.40;39.97;99744.63;4359192;32;35123;-85
2022/04/10 10:23:41;;;;;;;;;;;;;;;13.55;38.70;99735.81;4360010;32;32801;-86
2022/04/10 10:26:18;;;;;;;;;;;;;;;13.22;40.35;99733.22;4356879;32;34912;-85
2022/04/10 10:28:57;;;;;;;;;;;;;;;13.45;40.70;99739.63;4350804;32;35478;-85
2022/04/10 10:31:41;;;;;;;;;;;;;;;13.16;39.72;99739.22;4358009;32;35177;-86
2022/04/10 10:34:29;;;;;;;;;;;;;;;13.20;40.58;99740.56;4365066;32;33236;-87
2022/04/10 10:37:02;;;;;;;;;;;;;;;13.49;42.19;99751.69;4356750;32;34222;-86
2022/04/10 10:39:50;;;;;;;;;;;;;;;13.31;41.11;99733.06;4359477;32;36114;-87
2022/04/10 10:42:19;;;;;;;;;;;;;;;13.73;39.24;99743.69;4358396;32;35360;-90
2022/04/10 10:44:55;;;;;;;;;;;;;;;13.52;39.42;99746.00;4354824;32;33147;-87
2022/04/10 10:47:29;;;;;;;;;;;;;;;13.65;39.95;99733.81;4344798;32;34501;-89
2022/04/10 10:50:27;;;;;;;;;;;;;;;14.04;40.88;99744.72;4356844;32;34903;-86
2022/04/10 10:53:05;;;;;;;;;;;;;;;14.17;37.76;99750.41;4363065;32;33967;-87
2022/04/10 10:55:44;;;;;;;;;;;;;;;14.20;37.78;99740.22;4351632;32;33771;-88
2022/04/10 10:58:31;;;;;;;;;;;;;;;14.02;39.26;99747.56;4351302;32;34234;-86
2022/04/10 11:01:05;;;;;;;;;;;;;;;14.39;39.06;99737.19;4350570;32;35946;-86
2022/04/10 11:04:00;;;;;;;;;;;;;;;14.39;37.98;99737.19;4352769;32;34333;-88
2022/04/10 11:06:29;;;;;;;;;;;;;;;14.40;38.37;99746.91;4350081;32;32116;-90
2022/04/10 11:09:19;;;;;;;;;;;;;;;14.38;35.44;99733.66;4363523;32;33526;-88
2022/04/10 11:12:12;;;;;;;;;;;;;;;14.19;37.82;99733.22;4351755;32;34679;-87
2022/04/10 11:14:45;;;;;;;;;;;;;;;14.11;37.21;99738.53;4351745;32;34972;-86
2022/04/10 11:17:17;;;;;;;;;;;;;;;14.46;38.04;99730.97;4351170;32;32423;-87
2022/04/10 11:19:54;;;;;;;;;;;;;;;14.12;37.18;99732.16;4350902;32;34908;-87
2022/04/10 11:22:46;;;;;;;;;;;;;;;14.23;35.76;99731.03;4350347;32;35321;-86
2022/04/10 11:25:38;;;;;;;;;;;;;;;14.41;36.42;99737.03;4350032;32;34791;-87
2022/04/10 11:28:10;;;;;;;;;;;;;;;14.47;36.67;99724.63;4338104;32;33252;-86
2022/04/10 11:30:41;;;;;;;;;;;;;;;14.19;35.58;99730.53;4362067;32;34939;-84
2022/04/10 11:33:46;;;;;;;;;;;;;;;14.36;34.94;99732.19;4340098;32;33814;-88
2022/04/10 11:36:17;;;;;;;;;;;;;;;14.74;34.19;99724.22;4350715;32;33561;-86
2022/04/10 11:39:06;;;;;;;;;;;;;;;15.94;31.77;99720.91;4348902;32;33646;-85
2022/04/10 11:41:37;;;;;;;;;;;;;;;16.60;29.90;99720.16;4352134;32;34279;-86
2022/04/10 11:44:24;;;;;;;;;;;;;;;17.13;28.83;99706.41;4349205;32;35464;-88
2022/04/10 11:47:01;;;;;;;;;;;;;;;18.16;28.12;99701.31;4350862;32;33785;-86
2022/04/10 11:49:33;;;;;;;;;;;;;;;18.25;27.22;99710.94;4354102;32;33467;-89
2022/04/10 11:52:03;;;;;;;;;;;;;;;18.57;27.24;99710.34;4381590;32;34294;-85
2022/04/10 11:54:36;;;;;;;;;;;;;;;18.05;29.88;99707.25;4383949;32;34804;-86
2022/04/10 11:57:26;;;;;;;;;;;;;;;18.45;27.61;99720.88;4382286;32;34445;-86
2022/04/10 11:59:55;;;;;;;;;;;;;;;18.69;27.83;99722.28;4357727;32;34041;-86
2022/04/10 12:02:26;;;;;;;;;;;;;;;18.32;26.04;99723.44;4357458;32;34785;-89
2022/04/10 12:04:59;;;;;;;;;;;;;;;18.02;26.74;99724.59;4382008;32;35582;-86
2022/04/10 12:07:46;;;;;;;;;;;;;;;18.41;28.56;99727.66;4371542;32;33857;-86
2022/04/10 12:10:21;;;;;;;;;;;;;;;17.51;29.20;99728.41;4368888;32;33112;-87
2022/04/10 12:12:51;;;;;;;;;;;;;;;17.60;28.07;99727.28;4369905;32;33222;-86
2022/04/10 12:15:39;;;;;;;;;;;;;;;16.90;28.95;99730.69;4358438;32;36055;-87
2022/04/10 12:18:26;;;;;;;;;;;;;;;16.55;29.42;99726.06;4371832;32;34987;-86
2022/04/10 12:21:15;;;;;;;;;;;;;;;16.50;29.27;99723.09;4367455;32;33367;-86
2022/04/10 12:24:05;;;;;;;;;;;;;;;16.58;29.28;99736.44;4371228;32;34709;-87
2022/04/10 12:26:37;;;;;;;;;;;;;;;16.43;29.19;99726.69;4368467;32;34984;-86
2022/04/10 12:29:06;;;;;;;;;;;;;;;17.24;29.50;99720.19;4368143;32;34651;-88
2022/04/10 12:31:41;;;;;;;;;;;;;;;17.35;29.05;99725.09;4358692;32;33989;-86
2022/04/10 12:34:10;;;;;;;;;;;;;;;17.40;28.91;99727.25;4355981;32;34902;-87
2022/04/10 12:36:48;;;;;;;;;;;;;;;17.27;28.11;99719.00;4370144;32;35254;-89
2022/04/10 12:39:37;;;;;;;;;;;;;;;16.26;31.09;99719.78;4382733;32;34564;-88
2022/04/10 12:42:24;;;;;;;;;;;;;;;16.77;31.78;99721.63;4372103;32;33128;-85
2022/04/10 12:44:57;;;;;;;;;;;;;;;16.80;27.64;99723.97;4370858;32;34223;-86
2022/04/10 12:47:44;;;;;;;;;;;;;;;17.20;26.74;99726.13;4357231;32;34620;-85
2022/04/10 12:50:32;;;;;;;;;;;;;;;17.16;27.20;99723.00;4372162;32;35085;-86
2022/04/10 12:53:04;;;;;;;;;;;;;;;17.03;28.44;99719.28;4368612;32;33689;-85
2022/04/10 12:55:36;;;;;;;;;;;;;;;16.80;29.28;99705.97;4370217;32;34868;-88
2022/04/10 12:58:05;;;;;;;;;;;;;;;17.19;28.91;99713.72;4368499;32;34818;-86
2022/04/10 13:00:56;;;;;;;;;;;;;;;17.34;28.04;99719.91;4357548;32;34649;-88
2022/04/10 13:03:26;;;;;;;;;;;;;;;17.45;28.31;99717.59;4369421;32;32590;-86
2022/04/10 13:06:15;;;;;;;;;;;;;;;17.03;28.24;99716.59;4368637;32;34184;-90
2022/04/10 13:08:44;;;;;;;;;;;;;;;17.57;27.13;99721.47;4369057;32;34999;-86
2022/04/10 13:11:13;;;;;;;;;;;;;;;17.25;27.11;99713.78;4368302;32;33441;-86
2022/04/10 13:14:06;;;;;;;;;;;;;;;16.21;29.06;99731.06;4358624;32;32880;-87
2022/04/10 13:16:37;;;;;;;;;;;;;;;16.54;31.05;99712.81;4381907;32;33478;-86
2022/04/10 13:19:16;;;;;;;;;;;;;;;16.76;30.64;99717.25;4359156;32;36086;-86
2022/04/10 13:21:45;;;;;;;;;;;;;;;16.84;28.97;99722.56;4369975;32;33839;-86
2022/04/10 13:24:23;;;;;;;;;;;;;;;16.74;25.73;99719.31;4368796;32;32867;-85
2022/04/10 13:26:51;;;;;;;;;;;;;;;16.65;24.69;99715.03;4369615;32;32766;-88
2022/04/10 13:29:21;;;;;;;;;;;;;;;16.67;27.57;99729.13;4381936;32;35637;-85
2022/04/10 13:31:50;;;;;;;;;;;;;;;17.26;27.11;99733.47;4381544;32;35335;-87
2022/04/10 13:34:19;;;;;;;;;;;;;;;17.08;27.62;99731.16;4356467;32;33649;-86
2022/04/10 13:36:50;;;;;;;;;;;;;;;17.16;26.34;99738.31;4355991;32;33114;-86
2022/04/10 13:39:18;;;;;;;;;;;;;;;17.02;26.83;99725.69;4369585;32;34486;-86
2022/04/10 13:41:48;;;;;;;;;;;;;;;16.75;26.89;99729.88;4355588;32;34259;-86
2022/04/10 13:44:17;;;;;;;;;;;;;;;16.39;27.62;99744.19;4368996;32;32332;-88
2022/04/10 13:46:54;;;;;;;;;;;;;;;15.47;27.47;99739.00;4370199;32;34614;-87
2022/04/10 13:49:24;;;;;;;;;;;;;;;16.06;29.29;99737.41;4368181;32;35243;-85
2022/04/10 13:52:12;;;;;;;;;;;;;;;16.21;29.04;99749.84;4356897;32;34392;-88
2022/04/10 13:54:40;;;;;;;;;;;;;;;16.68;27.94;99745.06;4367662;32;32991;-87
2022/04/10 13:57:24;;;;;;;;;;;;;;;16.70;26.31;99734.97;4371228;32;32972;-86
2022/04/10 13:59:53;;;;;;;;;;;;;;;16.85;27.70;99741.19;4355689;32;35228;-88
2022/04/10 14:02:37;;;;;;;;;;;;;;;17.57;29.33;99749.19;4381716;32;34720;-86
2022/04/10 14:05:07;;;;;;;;;;;;;;;18.38;25.48;99751.47;4382821;32;32719;-89
2022/04/10 14:07:35;;;;;;;;;;;;;;;18.03;24.76;99753.19;4380474;32;33669;-90
2022/04/10 14:10:22;;;;;;;;;;;;;;;18.17;22.99;99752.31;4361869;32;36609;-87
2022/04/10 14:13:06;;;;;;;;;;;;;;;18.59;23.79;99754.94;4366158;32;34668;-90
2022/04/10 14:15:54;;;;;;;;;;;;;;;18.31;22.17;99756.78;4371582;32;34151;-91
2022/04/10 14:18:22;;;;;;;;;;;;;;;18.64;23.85;99754.34;4354762;32;33156;-90
2022/04/10 14:20:50;;;;;;;;;;;;;;;18.90;22.72;99751.84;4357233;32;34907;-90
2022/04/10 14:23:23;;;;;;;;;;;;;;;18.91;22.35;99748.13;4369683;32;33384;-89
2022/04/10 14:25:55;;;;;;;;;;;;;;;19.16;23.77;99752.81;4343947;32;33566;-91
2022/04/10 14:28:26;;;;;;;;;;;;;;;18.89;24.93;99752.88;4382661;32;33189;-90
2022/04/10 14:30:57;;;;;;;;;;;;;;;19.00;25.60;99739.66;4381212;32;35291;-88
2022/04/10 14:33:46;;;;;;;;;;;;;;;19.64;23.45;99748.28;4358414;32;33349;-89
2022/04/10 14:36:17;;;;;;;;;;;;;;;19.49;22.48;99751.16;4369212;32;33867;-89
2022/04/10 14:38:56;;;;;;;;;;;;;;;19.40;23.60;99741.56;4368762;32;33755;-89